Ashton, Illinois
Current Conditions -  °F | °C
As of 4:15 AM on Monday 26 Jan 2015 (Local Time) from KRPJ Reporting Station
Clear Clear  
Wind Chill: 12°   Ceiling: Unl
Heat Index: 12°   Visibility: 10mi
Dew Point: 10°   Wind: 0mph
Humidity: 91%   Direction: NA
Pressure: 29.99"   Gusts: NA
Location:  41.87°N, 89.22°W
Report Text: KRPJ 261015Z AUTO 00000KT 10SM CLR M11/M12 A2999 RMK AO2 T11091121
Loading
Personal Weather Stations






























Interactive Weather Map New forecast layout! Learn more

10-Day Weather Forecast

Advertisements
Track Severe Weather on mobile